Time;durP1;ratioP1;P1;durP2;ratioP2;P2;SDS_P1;SDS_P2;PMS_P1;PMS_P2;Temp;Humidity;BMP_temperature;BMP_pressure;BME280_temperature;BME280_humidity;BME280_pressure;Samples;Min_cycle;Max_cycle;Signal;HPM_P1;HPM_P2
2020/12/02 00:01:39;;;;;;;8.23;5.80;;;;;;;7.55;52.69;101605.44;5054001;28;20048;-66
2020/12/02 00:04:12;;;;;;;8.57;6.05;;;;;;;7.56;52.60;101601.75;5049883;28;20504;-66
2020/12/02 00:06:41;;;;;;;7.55;4.60;;;;;;;7.55;52.76;101597.25;5043909;28;20037;-67
2020/12/02 00:09:13;;;;;;;8.93;5.80;;;;;;;7.56;52.87;101607.19;5049796;28;20120;-66
2020/12/02 00:11:42;;;;;;;7.03;4.90;;;;;;;7.54;52.67;101608.25;5053358;28;20072;-67
2020/12/02 00:14:13;;;;;;;7.82;5.30;;;;;;;7.56;52.83;101600.88;5053715;28;20111;-67
2020/12/02 00:16:40;;;;;;;6.60;4.82;;;;;;;7.54;52.78;101594.63;5051139;28;20049;-66
2020/12/02 00:19:09;;;;;;;8.35;5.85;;;;;;;7.55;52.56;101589.09;5042233;28;20051;-67
2020/12/02 00:21:36;;;;;;;9.43;6.00;;;;;;;7.54;53.13;101590.06;5052547;28;20124;-67
2020/12/02 00:24:03;;;;;;;8.45;6.03;;;;;;;7.55;52.70;101590.94;5053056;28;20073;-67
2020/12/02 00:26:31;;;;;;;7.82;5.95;;;;;;;7.56;52.82;101589.97;5033215;28;20045;-66
2020/12/02 00:28:59;;;;;;;8.75;6.07;;;;;;;7.56;53.01;101585.41;5040640;28;20050;-66
2020/12/02 00:31:28;;;;;;;8.48;5.85;;;;;;;7.56;52.71;101581.81;5052134;28;20071;-66
2020/12/02 00:33:55;;;;;;;9.75;6.63;;;;;;;7.56;53.19;101579.09;5046667;28;20044;-66
2020/12/02 00:36:22;;;;;;;8.73;5.78;;;;;;;7.57;52.95;101583.56;5051206;28;20044;-66
2020/12/02 00:38:50;;;;;;;9.27;6.22;;;;;;;7.58;53.00;101591.59;5044086;28;20391;-66
2020/12/02 00:41:17;;;;;;;8.57;6.07;;;;;;;7.57;53.01;101589.00;5052496;28;20037;-66
2020/12/02 00:43:44;;;;;;;8.77;6.63;;;;;;;7.58;53.07;101598.91;5045132;28;20050;-66
2020/12/02 00:46:14;;;;;;;10.27;6.65;;;;;;;7.59;53.20;101600.66;5052036;28;20044;-66
2020/12/02 00:48:50;;;;;;;9.77;6.55;;;;;;;7.59;52.98;101596.09;5034706;28;20563;-66
2020/12/02 00:51:18;;;;;;;7.82;5.72;;;;;;;7.59;53.02;101592.50;5050391;28;20124;-66
2020/12/02 00:53:46;;;;;;;8.45;5.63;;;;;;;7.59;52.98;101595.22;5034798;28;20064;-66
2020/12/02 00:56:15;;;;;;;8.70;6.05;;;;;;;7.60;52.97;101592.41;5051967;28;20044;-66
2020/12/02 00:58:50;;;;;;;7.82;5.72;;;;;;;7.61;53.20;101591.44;5049416;28;20048;-66
2020/12/02 01:01:25;;;;;;;7.18;5.40;;;;;;;7.62;53.00;101595.91;5048854;28;20069;-66
2020/12/02 01:03:52;;;;;;;9.38;6.43;;;;;;;7.59;52.92;101587.03;5044322;28;20116;-67
2020/12/02 01:06:20;;;;;;;8.57;5.63;;;;;;;7.59;52.98;101595.22;5041826;28;20033;-66
2020/12/02 01:08:50;;;;;;;9.07;6.28;;;;;;;7.60;53.20;101595.13;5050638;28;20052;-66
2020/12/02 01:11:21;;;;;;;9.23;6.10;;;;;;;7.62;53.01;101595.03;5050688;28;20035;-66
2020/12/02 01:13:53;;;;;;;8.70;5.82;;;;;;;7.60;52.97;101592.41;5044064;28;20045;-66
2020/12/02 01:16:28;;;;;;;8.57;5.90;;;;;;;7.64;52.97;101593.09;5051275;28;20137;-66
2020/12/02 01:18:57;;;;;;;8.48;5.97;;;;;;;7.61;52.97;101582.38;5048263;28;20129;-66
2020/12/02 01:21:36;;;;;;;8.15;4.88;;;;;;;7.63;52.89;101580.44;5051615;28;20041;-66
2020/12/02 01:24:07;;;;;;;9.60;6.05;;;;;;;7.60;52.93;101580.63;5046336;28;20091;-67
2020/12/02 01:26:39;;;;;;;8.48;5.70;;;;;;;7.60;52.98;101578.78;5041700;28;20040;-67
2020/12/02 01:29:13;;;;;;;9.40;6.13;;;;;;;7.59;53.17;101587.03;5040848;28;20052;-66
2020/12/02 01:31:45;;;;;;;8.43;5.75;;;;;;;7.60;53.14;101589.69;5051176;28;20040;-66
2020/12/02 01:34:13;;;;;;;7.90;5.63;;;;;;;7.59;52.92;101582.47;5043485;28;20048;-67
2020/12/02 01:37:01;;;;;;;9.00;5.93;;;;;;;7.62;53.13;101587.75;5049642;28;20045;-66
2020/12/02 01:39:32;;;;;;;10.38;6.28;;;;;;;7.59;52.88;101587.91;5047178;28;20055;-67
2020/12/02 01:41:59;;;;;;;9.48;5.88;;;;;;;7.59;52.92;101584.31;5040929;28;20107;-67
2020/12/02 01:44:27;;;;;;;9.93;6.18;;;;;;;7.60;52.95;101583.34;5051186;28;20045;-66
2020/12/02 01:47:06;;;;;;;9.02;6.03;;;;;;;7.61;53.15;101591.44;5048147;28;20037;-67
2020/12/02 01:49:43;;;;;;;10.85;6.47;;;;;;;7.60;53.24;101586.94;5045351;28;20045;-67
2020/12/02 01:52:33;;;;;;;10.02;6.75;;;;;;;7.61;53.28;101590.56;5050322;28;20080;-66
2020/12/02 01:55:03;;;;;;;9.77;6.20;;;;;;;7.58;52.95;101591.59;5049813;28;20084;-66
2020/12/02 01:57:36;;;;;;;10.63;6.35;;;;;;;7.61;53.05;101594.16;5051119;28;20049;-66
2020/12/02 02:00:05;;;;;;;;;;;;;;;7.35;53.75;101594.88;5043688;28;20063;-66
2020/12/02 02:02:53;;;;;;;9.77;5.97;;;;;;;7.57;53.57;101587.13;5052020;28;19924;-66
2020/12/02 02:05:28;;;;;;;11.13;6.03;;;;;;;7.61;53.27;101590.56;5047256;28;20041;-67
2020/12/02 02:07:56;;;;;;;8.88;6.00;;;;;;;7.60;53.09;101586.06;5049218;28;20051;-67
2020/12/02 02:10:26;;;;;;;9.77;6.65;;;;;;;7.61;53.15;101588.72;5049576;28;20033;-66
2020/12/02 02:13:28;;;;;;;9.15;6.20;;;;;;;7.63;53.24;101585.91;5049793;28;20065;-67
2020/12/02 02:16:00;;;;;;;9.85;6.43;;;;;;;7.60;53.21;101576.06;5047157;28;20037;-66
2020/12/02 02:18:32;;;;;;;11.07;6.80;;;;;;;7.62;53.26;101574.13;5047149;28;20041;-66
2020/12/02 02:21:03;;;;;;;9.05;6.30;;;;;;;7.63;53.11;101581.31;5031850;28;20498;-66
2020/12/02 02:23:31;;;;;;;11.13;6.72;;;;;;;7.61;53.09;101566.94;5050836;28;20463;-67
2020/12/02 02:26:09;;;;;;;9.38;6.60;;;;;;;7.65;53.41;101568.50;5046629;28;20034;-66
2020/12/02 02:28:41;;;;;;;8.77;6.20;;;;;;;7.63;53.12;101565.00;5046356;28;20124;-67
2020/12/02 02:31:13;;;;;;;10.30;6.22;;;;;;;7.65;53.53;101565.78;5034508;28;20049;-67
2020/12/02 02:33:42;;;;;;;9.75;6.43;;;;;;;7.64;53.19;101568.59;5049512;28;20045;-66
2020/12/02 02:36:11;;;;;;;9.60;6.38;;;;;;;7.64;52.98;101571.31;5050265;28;20547;-66
2020/12/02 02:38:38;;;;;;;9.30;6.55;;;;;;;7.65;53.08;101575.78;5042710;28;20561;-66
2020/12/02 02:41:08;;;;;;;10.02;6.70;;;;;;;7.66;53.16;101578.38;5044761;28;20055;-66
2020/12/02 02:43:36;;;;;;;10.70;6.80;;;;;;;7.66;53.16;101569.34;5050529;28;20515;-66
2020/12/02 02:46:04;;;;;;;12.10;6.47;;;;;;;7.66;52.72;101569.34;5049777;28;20041;-66
2020/12/02 02:48:32;;;;;;;9.48;6.22;;;;;;;7.66;53.18;101569.34;5049952;28;20048;-66
2020/12/02 02:51:00;;;;;;;8.48;5.72;;;;;;;7.66;53.07;101564.78;5049245;28;20052;-66
2020/12/02 02:53:27;;;;;;;10.30;6.45;;;;;;;7.67;53.28;101571.09;5049953;28;20045;-66
2020/12/02 02:55:56;;;;;;;10.00;6.30;;;;;;;7.67;53.26;101562.94;5050550;28;20089;-66
2020/12/02 02:58:26;;;;;;;9.13;5.72;;;;;;;7.68;53.15;101561.97;5044908;28;20044;-66
2020/12/02 03:00:54;;;;;;;8.52;5.75;;;;;;;7.67;53.11;101563.81;5048844;28;20048;-67
2020/12/02 03:03:22;;;;;;;9.13;6.20;;;;;;;7.66;53.29;101562.06;5049868;28;20052;-66
2020/12/02 03:05:50;;;;;;;8.73;6.13;;;;;;;7.67;53.14;101565.66;5044148;28;20043;-66
2020/12/02 03:08:18;;;;;;;8.30;6.05;;;;;;;7.67;53.25;101563.81;5050174;28;20041;-66
2020/12/02 03:10:46;;;;;;;9.13;6.13;;;;;;;7.66;53.14;101570.22;5037339;28;20116;-66
2020/12/02 03:13:22;;;;;;;10.93;5.95;;;;;;;7.68;53.03;101557.41;5048663;28;20128;-66
2020/12/02 03:15:51;;;;;;;9.32;6.10;;;;;;;7.67;52.95;101579.28;5050503;28;20102;-66
2020/12/02 03:18:20;;;;;;;7.95;5.40;;;;;;;7.66;53.02;101561.19;5049320;28;20098;-66
2020/12/02 03:20:51;;;;;;;8.73;5.68;;;;;;;7.67;53.04;101562.94;5027548;28;20692;-66
2020/12/02 03:23:19;;;;;;;9.55;6.05;;;;;;;7.66;53.12;101563.91;5049619;28;20041;-66
2020/12/02 03:25:48;;;;;;;8.10;5.15;;;;;;;7.66;53.26;101563.91;5046469;28;20476;-66
2020/12/02 03:28:16;;;;;;;10.57;6.70;;;;;;;7.67;53.00;101560.22;5053016;28;20442;-66
2020/12/02 03:30:44;;;;;;;9.27;6.05;;;;;;;7.66;53.24;101559.31;5048870;28;20052;-66
2020/12/02 03:33:15;;;;;;;10.07;6.28;;;;;;;7.66;52.93;101556.59;5049645;28;20049;-65
2020/12/02 03:35:43;;;;;;;8.88;5.43;;;;;;;7.66;52.98;101547.56;5050075;28;20037;-66
2020/12/02 03:38:11;;;;;;;9.63;5.85;;;;;;;7.65;52.77;101545.84;5049632;28;20049;-66
2020/12/02 03:40:40;;;;;;;9.35;6.32;;;;;;;7.66;53.02;101555.72;5048016;28;20078;-65
2020/12/02 03:43:08;;;;;;;9.25;5.80;;;;;;;7.65;53.11;101551.28;5049446;28;20064;-65
2020/12/02 03:45:40;;;;;;;9.98;6.55;;;;;;;7.65;52.96;101546.72;5048801;28;20120;-65
2020/12/02 03:48:09;;;;;;;10.57;6.57;;;;;;;7.65;52.91;101548.56;5050520;28;20375;-66
2020/12/02 03:50:39;;;;;;;10.27;6.60;;;;;;;7.65;53.11;101543.13;5046049;28;20047;-65
2020/12/02 03:53:07;;;;;;;10.93;6.50;;;;;;;7.64;52.87;101550.41;5044708;28;20071;-66
2020/12/02 03:55:35;;;;;;;10.07;6.15;;;;;;;7.64;52.95;101550.41;5050015;28;20037;-66
2020/12/02 03:58:03;;;;;;;10.23;6.50;;;;;;;7.65;52.98;101543.13;5036985;28;20049;-66
2020/12/02 04:00:31;;;;;;;10.85;6.68;;;;;;;7.64;52.85;101547.69;5048759;28;20116;-66
2020/12/02 04:02:58;;;;;;;10.90;6.72;;;;;;;7.65;53.09;101548.56;5047332;28;20045;-66
2020/12/02 04:05:26;;;;;;;11.05;7.15;;;;;;;7.64;53.01;101550.41;5054807;28;20084;-67
2020/12/02 04:07:54;;;;;;;12.10;7.22;;;;;;;7.64;53.16;101539.50;5046671;28;20049;-66
2020/12/02 04:10:22;;;;;;;10.05;6.68;;;;;;;7.63;53.05;101534.16;5051967;28;20076;-66
2020/12/02 04:12:50;;;;;;;11.48;6.72;;;;;;;7.62;53.03;101530.56;5040061;28;20048;-66
2020/12/02 04:15:37;;;;;;;12.43;6.63;;;;;;;7.62;53.11;101536.00;5050255;28;20041;-66
2020/12/02 04:18:25;;;;;;;11.52;6.68;;;;;;;7.61;52.84;101533.38;5044830;28;20547;-66
2020/12/02 04:21:12;;;;;;;10.88;6.45;;;;;;;7.60;52.88;101529.78;5045688;28;20546;-66
2020/12/02 04:24:01;;;;;;;10.80;6.32;;;;;;;7.62;52.88;101533.28;5052603;28;20485;-66
2020/12/02 04:26:36;;;;;;;13.13;7.18;;;;;;;7.60;52.93;101527.06;5032109;28;20048;-66
2020/12/02 04:29:23;;;;;;;10.60;5.95;;;;;;;7.60;52.88;101526.19;5050113;28;20103;-66
2020/12/02 04:31:53;;;;;;;10.38;6.63;;;;;;;7.59;52.73;101528.03;5034788;28;20091;-66
2020/12/02 04:34:21;;;;;;;12.07;6.65;;;;;;;7.60;52.92;101521.59;5046945;28;20120;-66
2020/12/02 04:36:48;;;;;;;10.32;6.53;;;;;;;7.60;53.02;101529.78;5050021;28;20120;-66
2020/12/02 04:39:18;;;;;;;11.75;6.55;;;;;;;7.60;53.05;101532.50;5051161;28;20048;-66
2020/12/02 04:41:45;;;;;;;12.30;7.38;;;;;;;7.60;52.97;101518.00;5053051;28;20073;-66
2020/12/02 04:44:14;;;;;;;12.02;6.93;;;;;;;7.60;52.86;101526.19;5047970;28;20052;-66
2020/12/02 04:46:41;;;;;;;9.93;5.80;;;;;;;7.59;52.96;101525.28;5041367;28;20038;-66
2020/12/02 04:49:14;;;;;;;10.82;6.43;;;;;;;7.61;52.94;101514.31;5052756;28;20127;-65
2020/12/02 04:51:42;;;;;;;11.18;6.97;;;;;;;7.58;52.76;101519.94;5052385;28;20041;-66
2020/12/02 04:54:10;;;;;;;11.45;6.57;;;;;;;7.58;52.84;101520.81;5048290;28;20488;-65
2020/12/02 04:56:43;;;;;;;11.27;6.68;;;;;;;7.59;52.95;101530.75;5049410;28;20068;-67
2020/12/02 04:59:10;;;;;;;10.73;6.28;;;;;;;7.56;52.92;101525.50;5045131;28;20051;-66
2020/12/02 05:01:48;;;;;;;9.85;6.13;;;;;;;7.60;52.92;101523.44;5044523;28;20052;-66
2020/12/02 05:04:18;;;;;;;10.70;6.18;;;;;;;7.58;52.96;101526.25;5052659;28;20043;-67
2020/12/02 05:06:47;;;;;;;11.32;6.63;;;;;;;7.59;52.88;101529.88;5043541;28;20077;-66
2020/12/02 05:09:20;;;;;;;11.02;6.47;;;;;;;7.59;52.82;101527.13;5051431;28;20575;-66
2020/12/02 05:11:58;;;;;;;10.98;6.53;;;;;;;7.57;53.08;101529.97;5049055;28;20045;-66
2020/12/02 05:14:32;;;;;;;9.80;6.10;;;;;;;7.60;52.92;101545.22;5053297;28;20507;-66
2020/12/02 05:17:07;;;;;;;10.27;6.57;;;;;;;7.57;53.02;101535.41;5034183;28;20037;-65
2020/12/02 05:19:34;;;;;;;10.57;7.03;;;;;;;7.56;52.88;101535.53;5047787;28;20041;-64
2020/12/02 05:22:05;;;;;;;11.15;7.25;;;;;;;7.59;53.14;101538.03;5051067;28;20048;-66
2020/12/02 05:24:46;;;;;;;11.52;6.65;;;;;;;7.59;52.98;101533.47;5051996;28;20041;-66
2020/12/02 05:27:18;;;;;;;10.20;6.85;;;;;;;7.57;53.22;101532.69;5045475;28;20132;-66
2020/12/02 05:29:51;;;;;;;9.52;5.75;;;;;;;7.58;53.08;101531.72;5026388;28;20461;-66
2020/12/02 05:32:23;;;;;;;10.85;6.07;;;;;;;7.57;53.12;101538.13;5045067;28;20075;-66
2020/12/02 05:34:50;;;;;;;12.15;6.60;;;;;;;7.56;53.03;101535.53;5050845;28;20420;-66
2020/12/02 05:37:27;;;;;;;9.82;5.82;;;;;;;7.58;53.14;101531.72;5052203;28;20135;-65
2020/12/02 05:39:57;;;;;;;9.60;5.63;;;;;;;7.57;53.10;101527.22;5050384;28;20120;-66
2020/12/02 05:42:31;;;;;;;10.68;6.07;;;;;;;7.58;52.87;101528.09;5034364;28;20045;-65
2020/12/02 05:45:06;;;;;;;10.73;5.85;;;;;;;7.57;53.32;101521.78;5050374;28;20098;-66
2020/12/02 05:47:33;;;;;;;9.40;5.53;;;;;;;7.55;53.10;101523.75;5042907;28;20384;-66
2020/12/02 05:50:06;;;;;;;10.77;6.28;;;;;;;7.57;52.92;101521.78;5022957;28;20041;-66
2020/12/02 05:52:35;;;;;;;10.70;6.78;;;;;;;7.54;53.00;101524.72;5051443;28;20037;-66
2020/12/02 05:55:06;;;;;;;11.15;6.35;;;;;;;7.56;52.68;101511.91;5050525;28;20127;-66
2020/12/02 05:57:39;;;;;;;11.13;5.63;;;;;;;7.57;52.95;101510.06;5048661;28;20460;-66
2020/12/02 06:00:07;;;;;;;;;;;;;;;7.30;53.61;101515.38;5039755;28;20124;-66
2020/12/02 06:02:37;;;;;;;11.27;5.80;;;;;;;7.49;52.99;101503.22;5051311;28;19925;-66
2020/12/02 06:05:10;;;;;;;11.60;6.70;;;;;;;7.56;52.97;101508.31;5039692;28;20049;-66
2020/12/02 06:07:47;;;;;;;11.02;6.35;;;;;;;7.55;53.05;101512.00;5050573;28;20056;-66
2020/12/02 06:10:17;;;;;;;10.35;6.63;;;;;;;7.55;52.91;101501.09;5049221;28;20041;-66
2020/12/02 06:12:45;;;;;;;9.18;5.72;;;;;;;7.55;52.96;101517.44;5049521;28;20065;-67
2020/12/02 06:15:18;;;;;;;9.18;5.97;;;;;;;7.56;53.03;101508.31;5032186;28;20411;-66
2020/12/02 06:17:46;;;;;;;9.65;5.63;;;;;;;7.54;52.61;101508.38;5034899;28;20040;-66
2020/12/02 06:20:13;;;;;;;10.40;6.45;;;;;;;7.55;53.01;101507.41;5048828;28;20091;-66
2020/12/02 06:22:50;;;;;;;11.25;6.40;;;;;;;7.57;53.01;101508.19;5048439;28;20030;-66
2020/12/02 06:25:46;;;;;;;11.55;6.43;;;;;;;7.54;53.09;101505.66;5039500;28;20040;-66
2020/12/02 06:28:19;;;;;;;10.48;5.45;;;;;;;7.53;52.83;101501.19;5044359;28;20518;-66
2020/12/02 06:30:56;;;;;;;7.83;5.47;;;;;;;7.54;53.20;101505.66;5045040;28;20496;-66
2020/12/02 06:33:30;;;;;;;9.50;5.82;;;;;;;7.55;53.02;101504.69;5041245;28;20110;-66
2020/12/02 06:36:14;;;;;;;9.25;5.30;;;;;;;7.56;53.03;101500.13;5049963;28;20116;-67
2020/12/02 06:38:42;;;;;;;9.85;5.70;;;;;;;7.50;52.87;101501.38;5050552;28;20123;-67
2020/12/02 06:41:37;;;;;;;7.45;4.72;;;;;;;7.52;52.92;101496.72;5029096;28;20120;-67
2020/12/02 06:44:36;;;;;;;9.85;5.95;;;;;;;7.52;52.84;101501.28;5050336;28;20488;-66
2020/12/02 06:47:22;;;;;;;10.05;5.50;;;;;;;7.52;52.92;101498.56;5046607;28;20472;-67
2020/12/02 06:49:55;;;;;;;9.05;5.35;;;;;;;7.52;52.90;101504.00;5048591;28;20041;-67
2020/12/02 06:52:30;;;;;;;8.32;4.88;;;;;;;7.50;52.88;101496.81;5055928;28;20041;-67
2020/12/02 06:55:04;;;;;;;10.07;5.88;;;;;;;7.52;52.43;101495.84;5046432;28;20430;-66
2020/12/02 06:57:31;;;;;;;8.27;5.32;;;;;;;7.49;52.68;101499.63;5048475;28;20395;-67
2020/12/02 07:00:02;;;;;;;10.52;6.20;;;;;;;7.50;52.35;101494.09;5047326;28;20041;-66
2020/12/02 07:02:40;;;;;;;10.15;5.55;;;;;;;7.52;52.46;101501.28;5045244;28;20052;-66
2020/12/02 07:05:11;;;;;;;8.40;5.00;;;;;;;7.49;52.46;101499.63;5040162;28;20080;-66
2020/12/02 07:07:38;;;;;;;9.65;5.90;;;;;;;7.47;52.65;101496.16;5058684;28;20496;-66
2020/12/02 07:10:16;;;;;;;7.90;5.10;;;;;;;7.48;52.78;101493.34;5046795;28;20447;-68
2020/12/02 07:12:43;;;;;;;9.18;5.03;;;;;;;7.45;52.66;101492.63;5042082;28;20053;-68
2020/12/02 07:15:14;;;;;;;8.57;4.95;;;;;;;7.45;52.58;101485.34;5044379;28;20047;-68
2020/12/02 07:17:42;;;;;;;7.97;5.47;;;;;;;7.45;52.76;101492.63;5043601;28;20033;-67
2020/12/02 07:20:16;;;;;;;8.57;5.45;;;;;;;7.47;52.75;101490.69;5049468;28;20045;-66
2020/12/02 07:22:51;;;;;;;9.45;5.15;;;;;;;7.45;52.73;101496.22;5051391;28;20041;-66
2020/12/02 07:25:21;;;;;;;9.48;5.60;;;;;;;7.45;52.84;101498.97;5035023;28;20044;-67
2020/12/02 07:27:48;;;;;;;9.05;5.20;;;;;;;7.45;52.83;101492.63;5042992;28;20041;-67
2020/12/02 07:30:29;;;;;;;7.60;4.95;;;;;;;7.48;52.79;101490.59;5045986;28;20514;-67
2020/12/02 07:33:08;;;;;;;6.90;4.68;;;;;;;7.45;52.91;101492.63;5039686;28;20045;-67
2020/12/02 07:35:35;;;;;;;9.32;5.38;;;;;;;7.45;52.66;101490.78;5050254;28;20131;-67
2020/12/02 07:38:09;;;;;;;7.75;4.90;;;;;;;7.49;52.78;101486.88;5046426;28;20053;-67
2020/12/02 07:40:39;;;;;;;9.13;5.53;;;;;;;7.46;52.84;101483.50;5044612;28;20090;-67
2020/12/02 07:47:14;;;;;;;7.28;4.57;;;;;;;7.41;52.59;101486.50;5036680;28;20067;-67
2020/12/02 07:49:54;;;;;;;8.13;4.90;;;;;;;7.44;52.58;101486.31;5048296;28;20549;-66
2020/12/02 07:52:27;;;;;;;8.65;5.53;;;;;;;7.43;52.52;101479.13;5028594;28;20154;-67
2020/12/02 07:54:55;;;;;;;8.27;5.22;;;;;;;7.41;52.46;101488.34;5050946;28;20053;-66
2020/12/02 07:57:24;;;;;;;8.18;5.10;;;;;;;7.42;52.50;101488.25;5044677;28;20052;-66
2020/12/02 08:00:12;;;;;;;8.82;4.82;;;;;;;7.44;52.61;101486.31;5047486;28;20125;-67
2020/12/02 08:02:43;;;;;;;7.18;4.53;;;;;;;7.42;52.46;101490.09;5047875;28;20041;-66
2020/12/02 08:05:25;;;;;;;8.18;5.10;;;;;;;7.43;52.47;101490.00;5049494;28;20045;-66
2020/12/02 08:07:59;;;;;;;7.13;4.50;;;;;;;7.41;52.63;101493.78;5054107;28;20041;-65
2020/12/02 08:10:31;;;;;;;7.70;4.85;;;;;;;7.41;52.54;101491.94;5051904;28;20091;-66
2020/12/02 08:13:04;;;;;;;7.88;5.00;;;;;;;7.41;52.51;101485.63;5045134;28;20503;-66
2020/12/02 08:15:44;;;;;;;9.00;5.18;;;;;;;7.43;52.56;101486.41;5046593;28;20060;-67
2020/12/02 08:18:15;;;;;;;6.78;4.47;;;;;;;7.40;52.48;101486.63;5049623;28;20073;-65
2020/12/02 08:20:44;;;;;;;7.10;4.82;;;;;;;7.39;52.42;101488.47;5049291;28;20037;-66
2020/12/02 08:23:17;;;;;;;7.28;4.40;;;;;;;7.39;52.38;101487.59;5051537;28;20041;-66
2020/12/02 08:25:57;;;;;;;7.35;4.72;;;;;;;7.38;52.35;101486.72;5046396;28;20045;-66
2020/12/02 08:28:28;;;;;;;7.38;4.93;;;;;;;7.37;52.14;101487.69;5049346;28;20075;-66
2020/12/02 08:31:06;;;;;;;6.53;4.35;;;;;;;7.37;52.11;101494.97;5041566;28;20037;-66
2020/12/02 08:33:34;;;;;;;8.55;4.80;;;;;;;7.33;52.22;101486.09;5040921;28;20042;-66
2020/12/02 08:36:07;;;;;;;7.28;4.45;;;;;;;7.36;52.08;101490.50;5045146;28;20057;-66
2020/12/02 08:38:37;;;;;;;6.90;4.70;;;;;;;7.34;52.16;101482.41;5048056;28;20563;-67
2020/12/02 08:41:15;;;;;;;7.32;4.75;;;;;;;7.34;51.99;101484.25;5048791;28;20138;-67
2020/12/02 08:43:47;;;;;;;7.13;5.00;;;;;;;7.30;52.09;101489.03;5047205;28;20115;-68
2020/12/02 08:46:20;;;;;;;6.65;4.28;;;;;;;7.30;52.00;101488.16;5050241;28;20040;-68
2020/12/02 08:48:50;;;;;;;5.85;3.80;;;;;;;7.28;52.02;101482.81;5045692;28;20041;-68
2020/12/02 08:51:19;;;;;;;7.13;4.18;;;;;;;7.27;52.11;101480.19;5044652;28;20049;-68
2020/12/02 08:53:47;;;;;;;6.65;4.35;;;;;;;7.25;52.30;101480.28;5046532;28;20491;-67
2020/12/02 08:56:30;;;;;;;6.68;4.25;;;;;;;7.27;52.29;101482.91;5040859;28;20136;-68
2020/12/02 08:58:57;;;;;;;6.43;4.00;;;;;;;7.21;52.23;101475.13;5050704;28;20428;-67
2020/12/02 09:01:25;;;;;;;5.32;3.25;;;;;;;7.22;52.25;101471.44;5043639;28;20439;-67
2020/12/02 09:03:52;;;;;;;5.80;3.65;;;;;;;7.21;52.17;101472.41;5050334;28;20511;-67
2020/12/02 09:06:21;;;;;;;5.38;3.28;;;;;;;7.21;52.26;101469.69;5051139;28;20037;-67
2020/12/02 09:08:50;;;;;;;6.05;3.65;;;;;;;7.20;52.10;101470.66;5040819;28;20505;-67
2020/12/02 09:11:21;;;;;;;5.20;3.15;;;;;;;7.19;52.07;101464.34;5053077;28;20099;-67
2020/12/02 09:14:02;;;;;;;;;;;;;;;6.91;52.72;101467.00;5047108;28;20043;-68
2020/12/02 09:16:33;;;;;;;6.10;2.97;;;;;;;7.09;51.94;101461.31;5047885;28;19927;-66
2020/12/02 09:19:01;;;;;;;6.18;3.97;;;;;;;7.12;51.96;101468.41;5046225;28;20170;-65
2020/12/02 09:21:29;;;;;;;5.25;3.50;;;;;;;7.12;51.91;101465.69;5046179;28;20044;-65
2020/12/02 09:23:59;;;;;;;5.47;3.28;;;;;;;7.10;52.06;101454.03;5045351;28;20068;-67
2020/12/02 09:26:28;;;;;;;5.75;3.63;;;;;;;7.09;52.15;101452.28;5044468;28;20128;-67
2020/12/02 09:28:56;;;;;;;6.07;3.67;;;;;;;7.07;52.22;101454.22;5030874;28;20547;-67
2020/12/02 09:31:27;;;;;;;6.03;3.92;;;;;;;7.08;52.24;101447.78;5031185;28;20033;-67
2020/12/02 09:34:12;;;;;;;5.82;3.30;;;;;;;7.04;52.25;101443.50;5027240;28;20086;-67
2020/12/02 09:36:59;;;;;;;6.45;4.20;;;;;;;7.03;52.20;101442.63;5050375;28;20045;-67
2020/12/02 09:39:47;;;;;;;5.97;3.95;;;;;;;7.02;52.36;101440.00;5062591;28;20049;-67
2020/12/02 09:43:02;;;;;;;6.82;4.20;;;;;;;7.01;52.29;101436.41;5039352;28;20056;-67
2020/12/02 09:45:40;;;;;;;5.28;3.67;;;;;;;7.03;52.39;101439.03;5046288;28;20504;-67
2020/12/02 09:48:13;;;;;;;6.50;3.75;;;;;;;7.03;52.16;101431.75;5046342;28;20048;-67
2020/12/02 09:50:40;;;;;;;7.03;4.55;;;;;;;7.01;52.21;101430.06;5047020;28;20124;-67
2020/12/02 09:53:16;;;;;;;6.57;4.13;;;;;;;7.03;52.34;101419.97;5029718;28;20063;-67
2020/12/02 09:55:43;;;;;;;6.18;4.20;;;;;;;6.99;52.28;101424.75;5021430;28;20041;-66
2020/12/02 09:58:12;;;;;;;7.00;4.22;;;;;;;7.01;52.28;101422.78;5047933;28;20079;-67
2020/12/02 10:00:42;;;;;;;6.70;4.15;;;;;;;7.00;52.20;101423.75;5045569;28;20033;-66
2020/12/02 10:03:37;;;;;;;6.70;4.30;;;;;;;7.01;51.87;101424.63;5042508;28;20502;-66
2020/12/02 10:06:37;;;;;;;6.78;4.07;;;;;;;6.99;52.16;101422.03;5043392;28;20583;-67
2020/12/02 10:09:32;;;;;;;5.68;3.95;;;;;;;6.98;52.08;101422.13;5044828;28;20124;-67
2020/12/02 10:12:09;;;;;;;6.03;4.20;;;;;;;6.97;52.02;101421.25;5049030;28;20119;-67
2020/12/02 10:15:02;;;;;;;7.28;4.15;;;;;;;6.96;52.00;101405.03;5016177;28;20060;-67
2020/12/02 10:18:00;;;;;;;6.15;3.75;;;;;;;6.96;52.13;101399.59;5044675;28;20059;-67
2020/12/02 10:20:40;;;;;;;7.72;4.35;;;;;;;6.92;52.11;101408.88;5044793;28;20033;-66
2020/12/02 10:23:43;;;;;;;6.20;4.38;;;;;;;6.90;51.91;101399.97;5047516;28;20041;-65
2020/12/02 10:26:37;;;;;;;6.78;4.50;;;;;;;6.90;52.14;101400.84;5045999;28;20241;-66
2020/12/02 10:29:12;;;;;;;8.07;5.18;;;;;;;6.90;52.00;101389.97;5045305;28;20041;-66
2020/12/02 10:31:52;;;;;;;7.45;5.00;;;;;;;6.91;51.55;101388.13;5043657;28;20043;-66
2020/12/02 10:34:22;;;;;;;7.07;4.80;;;;;;;6.89;51.85;101387.34;5046625;28;20041;-65
2020/12/02 10:36:55;;;;;;;5.97;4.10;;;;;;;6.89;52.07;101376.47;5049181;28;20064;-66
2020/12/02 10:39:28;;;;;;;7.32;4.20;;;;;;;6.87;51.98;101373.84;5060800;28;20148;-65
2020/12/02 10:42:11;;;;;;;5.97;4.55;;;;;;;6.87;51.83;101365.69;5049886;28;20143;-66
2020/12/02 10:44:50;;;;;;;6.82;4.28;;;;;;;6.86;52.05;101358.47;5044019;28;20048;-65
2020/12/02 10:47:28;;;;;;;6.13;4.00;;;;;;;6.85;52.12;101345.84;5049909;28;20040;-66
2020/12/02 10:49:56;;;;;;;6.85;4.32;;;;;;;6.84;52.14;101341.38;5047547;28;20045;-66
2020/12/02 10:52:24;;;;;;;6.30;4.10;;;;;;;6.86;52.27;101335.84;5031647;28;20045;-67
2020/12/02 10:54:52;;;;;;;8.80;5.03;;;;;;;6.85;52.02;101345.84;5048956;28;20427;-67
2020/12/02 10:57:22;;;;;;;6.50;4.43;;;;;;;6.86;52.16;101331.28;5046446;28;20037;-67
2020/12/02 10:59:53;;;;;;;6.18;4.35;;;;;;;6.85;52.10;101334.97;5029341;28;20116;-67
2020/12/02 11:02:23;;;;;;;7.60;4.80;;;;;;;6.86;52.18;101331.28;5043105;28;20152;-68
2020/12/02 11:04:51;;;;;;;6.43;4.43;;;;;;;6.85;52.11;101323.22;5012795;28;20049;-66
2020/12/02 11:07:29;;;;;;;5.80;3.95;;;;;;;6.87;52.04;101319.44;5049575;28;20811;-66
2020/12/02 11:10:02;;;;;;;7.30;4.65;;;;;;;6.87;52.38;101321.28;5042819;28;20037;-66
2020/12/02 11:13:05;;;;;;;6.47;4.28;;;;;;;6.86;52.11;101319.53;5044219;28;20432;-66
2020/12/02 11:15:46;;;;;;;6.10;4.30;;;;;;;6.86;52.29;101309.53;5044274;28;20056;-66
2020/12/02 11:18:27;;;;;;;6.07;4.63;;;;;;;6.88;52.14;101309.44;5050979;28;20591;-66
2020/12/02 11:21:09;;;;;;;8.30;5.00;;;;;;;6.87;51.88;101305.84;5044841;28;20057;-66
2020/12/02 11:23:51;;;;;;;5.90;4.18;;;;;;;6.89;51.96;101301.19;5050238;28;20036;-67
2020/12/02 11:26:25;;;;;;;7.90;4.82;;;;;;;6.87;52.00;101297.69;5047908;28;20037;-65
2020/12/02 11:28:54;;;;;;;7.00;4.82;;;;;;;6.87;52.25;101286.81;5046362;28;20037;-66
2020/12/02 11:31:52;;;;;;;7.10;4.65;;;;;;;6.90;52.24;101289.34;5025328;28;20087;-66
2020/12/02 11:34:36;;;;;;;7.57;4.82;;;;;;;6.90;52.08;101281.19;5045169;28;20032;-66
2020/12/02 11:37:08;;;;;;;8.00;4.80;;;;;;;6.90;52.10;101283.91;5046188;28;20379;-66
2020/12/02 11:40:02;;;;;;;7.50;5.35;;;;;;;6.91;51.80;101282.06;5042437;28;20100;-66
2020/12/02 11:42:39;;;;;;;7.80;5.30;;;;;;;6.90;51.59;101281.19;5048944;28;20055;-66
2020/12/02 11:45:15;;;;;;;6.65;4.25;;;;;;;6.91;51.61;101280.19;5041870;28;20041;-66
2020/12/02 11:47:57;;;;;;;5.40;3.80;;;;;;;6.91;51.47;101277.47;5053888;28;20407;-66
2020/12/02 11:50:49;;;;;;;5.68;3.92;;;;;;;6.87;51.80;101281.38;5041673;28;20049;-66
2020/12/02 11:53:37;;;;;;;5.88;3.90;;;;;;;6.89;51.74;101274.00;5046500;28;20040;-66
2020/12/02 11:56:09;;;;;;;6.13;3.70;;;;;;;6.86;51.79;101273.31;5030073;28;20072;-66
2020/12/02 11:58:36;;;;;;;5.78;3.58;;;;;;;6.85;51.64;101267.00;5045986;28;20391;-66
2020/12/02 12:01:16;;;;;;;6.07;3.95;;;;;;;6.87;51.67;101262.34;5048038;28;20053;-66
2020/12/02 12:03:51;;;;;;;5.93;4.38;;;;;;;6.86;51.97;101262.44;5040865;28;20040;-66
2020/12/02 12:06:22;;;;;;;6.72;4.15;;;;;;;6.84;51.83;101259.81;5045280;28;20128;-66